Meteo Giornale » Osservazioni meteo Russia » Anadyr
ore: 13:30 - Osservazioni Meteo Anadyr
Lat. 64° 47' N Lon. 177° 34' E Alt. 62 metri s.l.m.
11 °C
Nuvoloso
Temp. 24 Ore
-1 °C
11 °C
Nord/NOvest
18 Km/h
Dew point 3 °C
Umidità 57 %
Visibilità 10 Km
Il sole sorge alle ore 04:48
Il sole tramonta alle ore 19:30
| Data e Ora | Cielo e Fenomeni | T °C | DP °C | Um. % | Pres. hPa | Vis. km | Vento km/h | |
|---|---|---|---|---|---|---|---|---|
| Oggi h: 13:30 | Nuvoloso | 11 | 3 | 57 | 1013 | 10 | N/NO 18 | |
| Oggi h: 13:00 | Nuvoloso | 11 | 3 | 57 | 1013 | 10 | N 18 | |
| Oggi h: 12:30 | Nuvoloso | 11 | 3 | 57 | 1013 | 10 | N/NO 14.4 | |
| Oggi h: 12:00 | Nuvoloso | 10 | 3 | 61 | 1013 | 10 | N/NO 14.4 | |
| Oggi h: 11:30 | Poco Nuvoloso | 10 | 2 | 57 | 1014 | 10 | N/NO 18 | |
| Oggi h: 11:00 | Poco Nuvoloso | 10 | 2 | 57 | 1014 | 10 | N/NO 18 | |
| Oggi h: 10:30 | Poco Nuvoloso | 10 | 2 | 57 | 1014 | 10 | NO 14.4 | |
| Oggi h: 10:00 | Poco Nuvoloso | 9 | 2 | 61 | 1014 | 10 | N/NO 14.4 | |
| Oggi h: 09:30 | Poco Nuvoloso | 9 | 2 | 61 | 1014 | 10 | N/NO 10.8 | |
| Oggi h: 09:00 | Poco Nuvoloso | 8 | 2 | 65 | 1014 | 10 | N 14.4 | |
| Oggi h: 08:30 | Sereno | 8 | 1 | 61 | 1015 | 10 | N/NO 14.4 | |
| Oggi h: 08:00 | Sereno | 8 | 1 | 61 | 1015 | 10 | N 14.4 | |
| Oggi h: 07:30 | Sereno | 7 | 1 | 65 | 1015 | 10 | N 14.4 | |
| Oggi h: 07:00 | Sereno | 6 | 2 | 75 | 1015 | 10 | N 10.8 | |
| Oggi h: 06:30 | Sereno | 5 | 2 | 80 | 1015 | 10 | N/NO 10.8 | |
| Oggi h: 06:25 | Sereno | 5 | 2 | 80 | 1015 | 10 | N 10.8 | |
| Oggi h: 06:10 | Sereno | 3 | 2 | 93 | 1015 | 10 | N 10.8 | |
| Oggi h: 06:00 | Sereno | 1 | 0 | 93 | 1015 | 10 | N/NE 14.4 | |
| Oggi h: 05:30 | Sereno | 0 | -1 | 92 | 1015 | 10 | N/NE 14.4 | |
| Oggi h: 05:00 | Sereno | 0 | -2 | 86 | 1015 | 10 | N 10.8 | |
| Oggi h: 04:30 | Sereno | -1 | -2 | 92 | 1015 | 10 | N/NE 14.4 | |
| Oggi h: 04:00 | Sereno | -1 | -3 | 86 | 1015 | 10 | E/NE 10.8 | |
| Oggi h: 03:30 | Sereno | -1 | -4 | 80 | 1015 | 10 | N 0 | |
| Oggi h: 03:00 | Sereno | 5 | 1 | 75 | 1015 | 10 | N 7.2 | |
| Oggi h: 02:45 | Sereno | 5 | 1 | 75 | 1015 | 10 | N 3.6 | |
| Oggi h: 02:42 | Sereno | 3 | 0 | 80 | 1015 | 10 | N 3.6 | |
| Oggi h: 02:30 | Sereno | 1 | -1 | 86 | 1015 | 10 | N 3.6 | |
| Oggi h: 02:00 | Sereno | 1 | 0 | 93 | 1016 | 10 | N 3.6 | |
| Oggi h: 01:30 | Sereno | 6 | 1 | 70 | 1016 | 10 | O/SO 10.8 | |
| Oggi h: 01:20 | Sereno | 5 | 1 | 75 | 1016 | 10 | N 7.2 | |
| Oggi h: 01:14 | Sereno | 3 | 1 | 86 | 1016 | 10 | N 7.2 | |
| Oggi h: 01:00 | Sereno | 1 | 0 | 93 | 1016 | 10 | N 3.6 | |
| Oggi h: 00:43 | Sereno | 1 | 0 | 93 | 1016 | 10 | N 3.6 | |
| Oggi h: 00:30 | Sereno | -1 | -3 | 86 | 1016 | 10 | N 7.2 | |
| Oggi h: 00:00 | Sereno | 0 | -1 | 92 | 1016 | 10 | N 0 | |
| Ieri h: 23:30 | Sereno | 1 | -1 | 86 | 1016 | 10 | N 3.6 | |
| Ieri h: 23:00 | Sereno | 1 | -1 | 86 | 1016 | 10 | N 7.2 | |
| Ieri h: 22:30 | Sereno | 1 | -1 | 86 | 1016 | 10 | N 3.6 | |
| Ieri h: 22:00 | Sereno | 0 | -3 | 80 | 1016 | 10 | N 3.6 | |
| Ieri h: 21:30 | Sereno | 3 | 0 | 80 | 1017 | 10 | N 3.6 | |
| Ieri h: 21:00 | Sereno | 2 | -1 | 80 | 1017 | 10 | N 7.2 | |
| Ieri h: 20:30 | Sereno | 4 | 1 | 80 | 1017 | 10 | N 7.2 | |
| Ieri h: 20:00 | Sereno | 3 | 0 | 80 | 1017 | 10 | N 7.2 | |
| Ieri h: 19:30 | Sereno | 7 | 2 | 70 | 1017 | 10 | N 7.2 | |
| Ieri h: 19:00 | Sereno | 8 | 2 | 65 | 1017 | 10 | N 7.2 | |
| Ieri h: 18:30 | Sereno | 10 | 2 | 57 | 1017 | 10 | O/NO 10.8 | |
| Ieri h: 18:00 | Sereno | 11 | 2 | 53 | 1017 | 10 | NO 10.8 | |
| Ieri h: 17:30 | Sereno | 11 | 2 | 53 | 1017 | 10 | NO 14.4 | |
| Ieri h: 17:00 | Sereno | 11 | 1 | 50 | 1017 | 10 | O/NO 18 | |
| Ieri h: 16:30 | Sereno | 11 | 2 | 53 | 1017 | 10 | O/NO 21.6 | |
| Ieri h: 16:00 | Sereno | 11 | 1 | 50 | 1017 | 10 | NO 21.6 | |
| Ieri h: 15:30 | Sereno | 11 | 1 | 50 | 1018 | 10 | NO 21.6 | |
| Ieri h: 15:00 | Sereno | 11 | 1 | 50 | 1018 | 10 | NO 25.2 | |



